Time;durP1;ratioP1;P1;durP2;ratioP2;P2;SDS_P1;SDS_P2;PMS_P1;PMS_P2;Temp;Humidity;BMP_temperature;BMP_pressure;BME280_temperature;BME280_humidity;BME280_pressure;Samples;Min_cycle;Max_cycle;Signal;HPM_P1;HPM_P2
2021/09/19 00:01:57;;;;;;;3.83;2.30;;;;;;;14.19;85.28;145741.78;1834948;77;22140;-61
2021/09/19 00:04:32;;;;;;;5.15;2.50;;;;;;;14.18;85.50;145740.55;1835035;77;22585;-64
2021/09/19 00:07:32;;;;;;;4.72;2.50;;;;;;;14.18;85.39;145739.30;1834299;77;22156;-66
2021/09/19 00:10:16;;;;;;;5.78;2.62;;;;;;;14.14;85.30;145730.47;1834205;77;22181;-68
2021/09/19 00:13:16;;;;;;;5.87;3.17;;;;;;;14.11;85.44;145722.92;1834319;77;22570;-60
2021/09/19 00:15:52;;;;;;;5.72;3.25;;;;;;;14.09;85.46;145719.19;1853576;77;22148;-62
2021/09/19 00:18:47;;;;;;;5.53;2.80;;;;;;;14.06;85.56;145710.34;1835089;77;20100;-67
2021/09/19 00:21:21;;;;;;;5.40;2.83;;;;;;;14.04;85.62;145706.61;1835063;77;22125;-60
2021/09/19 00:24:04;;;;;;;5.72;2.95;;;;;;;14.05;85.72;145707.84;1853581;77;22207;-64
2021/09/19 00:26:39;;;;;;;4.80;2.70;;;;;;;14.06;85.76;145711.59;1834976;77;22132;-63
2021/09/19 00:29:38;;;;;;;5.55;2.87;;;;;;;14.07;85.66;145714.14;1834151;77;22172;-63
2021/09/19 00:32:13;;;;;;;6.35;2.85;;;;;;;14.04;85.72;145705.31;1835155;77;22124;-61
2021/09/19 00:34:54;;;;;;;4.20;2.58;;;;;;;14.02;85.92;145701.56;1834143;77;22577;-61
2021/09/19 00:37:49;;;;;;;4.47;2.95;;;;;;;14.03;85.89;145702.81;1853578;77;22136;-62
2021/09/19 00:40:26;;;;;;;6.03;2.75;;;;;;;14.03;85.89;145704.06;1843754;78;22151;-64
2021/09/19 00:43:20;;;;;;;5.20;2.83;;;;;;;14.06;85.76;145711.59;1835236;77;22137;-64
2021/09/19 00:45:55;;;;;;;4.30;2.67;;;;;;;14.07;85.66;145712.89;1835048;77;22579;-61
2021/09/19 00:48:30;;;;;;;5.78;2.27;;;;;;;14.05;85.59;145709.09;1853572;77;22545;-65
2021/09/19 00:51:05;;;;;;;4.22;2.42;;;;;;;14.06;85.64;145710.34;1835015;77;22573;-62
2021/09/19 00:54:00;;;;;;;6.42;2.58;;;;;;;14.07;85.45;145714.14;1834992;77;22132;-63
2021/09/19 00:56:35;;;;;;;4.12;2.58;;;;;;;14.07;85.42;145714.14;1853590;77;20213;-62
2021/09/19 00:59:30;;;;;;;4.55;2.33;;;;;;;14.05;85.56;145709.09;1835019;77;22599;-63
2021/09/19 01:02:26;;;;;;;5.53;2.52;;;;;;;14.01;85.68;145699.02;1834966;77;22124;-62
2021/09/19 01:05:03;;;;;;;9.73;2.80;;;;;;;13.98;85.96;145691.48;1853581;77;22164;-64
2021/09/19 01:07:58;;;;;;;3.98;2.37;;;;;;;13.98;86.16;145690.23;1853494;77;22128;-66
2021/09/19 01:10:33;;;;;;;5.65;2.58;;;;;;;13.98;86.22;145691.48;1835044;77;22543;-61
2021/09/19 01:13:28;;;;;;;4.40;2.67;;;;;;;13.99;86.18;145694.03;1835055;77;22582;-62
2021/09/19 01:16:04;;;;;;;4.20;2.37;;;;;;;13.96;86.03;145686.44;1837819;77;27963;-63
2021/09/19 01:18:41;;;;;;;4.08;2.40;;;;;;;14.02;86.50;145701.56;1853680;77;22579;-63
2021/09/19 01:21:17;;;;;;;6.08;2.33;;;;;;;14.04;86.56;145706.61;1853532;77;22213;-66
2021/09/19 01:24:11;;;;;;;5.22;2.42;;;;;;;14.02;86.65;145701.56;1834964;77;22144;-63
2021/09/19 01:26:46;;;;;;;3.83;2.08;;;;;;;14.01;86.81;145699.02;1853447;77;22135;-65
2021/09/19 01:29:40;;;;;;;4.12;2.80;;;;;;;13.97;86.86;145688.98;1835770;77;22216;-68
2021/09/19 01:32:21;;;;;;;4.37;2.33;;;;;;;13.93;87.02;145678.91;1819285;77;27944;-67
2021/09/19 01:35:00;;;;;;;4.15;2.42;;;;;;;13.97;87.14;145688.98;1853919;77;22219;-68
2021/09/19 01:37:56;;;;;;;4.72;2.30;;;;;;;13.89;87.23;145670.12;1853546;77;22128;-64
2021/09/19 01:40:50;;;;;;;7.25;2.58;;;;;;;13.83;87.48;145653.77;1819400;77;27994;-60
2021/09/19 01:43:25;;;;;;;7.10;2.05;;;;;;;13.86;87.80;145662.55;1853565;77;22164;-62
2021/09/19 01:46:19;;;;;;;6.92;2.50;;;;;;;13.85;87.88;145660.05;1834968;77;22136;-60
2021/09/19 01:49:12;;;;;;;4.15;2.52;;;;;;;13.81;87.95;145648.72;1834969;77;22141;-64
2021/09/19 01:52:07;;;;;;;5.95;2.62;;;;;;;13.77;88.14;145639.94;1853523;77;22136;-63
2021/09/19 01:54:42;;;;;;;4.87;2.47;;;;;;;13.74;88.36;145632.41;1834993;77;22551;-61
2021/09/19 01:57:20;;;;;;;7.85;4.30;;;;;;;13.75;88.65;145634.91;1835054;77;22137;-63
2021/09/19 02:00:15;;;;;;;6.90;2.60;;;;;;;13.74;88.86;145632.41;1853660;77;22577;-67
2021/09/19 02:02:50;;;;;;;4.90;2.12;;;;;;;13.75;88.89;145633.66;1853601;77;22564;-58
2021/09/19 02:05:46;;;;;;;5.53;2.70;;;;;;;13.75;89.09;145633.66;1834969;77;22144;-61
2021/09/19 02:08:41;;;;;;;5.87;2.95;;;;;;;13.77;89.16;145638.69;1834764;77;20186;-62
2021/09/19 02:11:18;;;;;;;4.42;2.50;;;;;;;13.76;89.17;145636.14;1835030;77;22129;-67
2021/09/19 02:13:52;;;;;;;4.25;2.42;;;;;;;13.77;89.30;145638.69;1853543;77;22136;-66
2021/09/19 02:16:47;;;;;;;5.62;2.42;;;;;;;13.76;89.31;145636.14;1835012;77;22128;-64
2021/09/19 02:19:22;;;;;;;4.62;2.50;;;;;;;13.71;89.39;145624.81;1834962;77;22156;-67
2021/09/19 02:21:57;;;;;;;5.70;2.58;;;;;;;13.67;89.26;145614.80;1835008;77;22169;-64
2021/09/19 02:24:40;;;;;;;4.12;2.40;;;;;;;13.61;88.99;145600.97;1853496;77;22240;-64
2021/09/19 02:27:15;;;;;;;3.72;2.20;;;;;;;13.58;88.87;145592.14;1835021;77;22128;-66
2021/09/19 02:29:50;;;;;;;6.40;2.58;;;;;;;13.58;88.82;145592.14;1835224;77;22203;-66
2021/09/19 02:32:32;;;;;;;4.00;2.50;;;;;;;13.57;88.82;145590.89;1853519;77;22225;-61
2021/09/19 02:35:09;;;;;;;4.00;2.20;;;;;;;13.56;88.89;145588.41;1834920;77;22155;-63
2021/09/19 02:37:47;;;;;;;3.67;2.08;;;;;;;13.53;89.28;145580.81;1835014;77;22187;-64
2021/09/19 02:40:20;;;;;;;4.22;2.17;;;;;;;13.45;89.53;145561.97;1819597;77;38691;-64
2021/09/19 02:42:55;;;;;;;5.17;2.92;;;;;;;13.38;89.70;145544.41;1835075;77;22136;-64
2021/09/19 02:45:51;;;;;;;5.95;2.67;;;;;;;13.38;90.31;145543.11;1853493;77;22135;-62
2021/09/19 02:48:26;;;;;;;4.17;2.58;;;;;;;13.37;90.30;145541.86;1835009;77;22535;-65
2021/09/19 02:51:25;;;;;;;5.00;2.70;;;;;;;13.32;90.20;145529.28;1834150;77;22188;-61
2021/09/19 02:54:19;;;;;;;5.03;2.87;;;;;;;13.22;90.34;145504.11;1835094;77;22133;-62
2021/09/19 02:57:13;;;;;;;3.75;2.45;;;;;;;13.12;90.74;145478.97;1834959;77;22136;-62
2021/09/19 02:59:49;;;;;;;4.42;3.00;;;;;;;13.07;91.22;145467.66;1834844;77;22173;-64
2021/09/19 03:02:24;;;;;;;6.12;2.87;;;;;;;13.10;91.39;145473.94;1835041;77;22128;-59
2021/09/19 03:04:59;;;;;;;5.15;2.95;;;;;;;13.10;91.41;145475.23;1834912;77;22136;-66
2021/09/19 03:07:55;;;;;;;4.72;3.27;;;;;;;13.10;91.58;145475.23;1834985;77;22136;-68
2021/09/19 03:10:50;;;;;;;5.40;2.72;;;;;;;13.10;91.78;145475.23;1834762;77;22165;-68
2021/09/19 03:13:45;;;;;;;5.90;2.83;;;;;;;13.18;92.24;145494.08;1834969;77;22160;-62
2021/09/19 03:16:22;;;;;;;5.12;2.95;;;;;;;13.30;92.45;145523.00;1834963;77;22151;-68
2021/09/19 03:18:57;;;;;;;5.15;2.70;;;;;;;13.43;92.57;145555.69;1819416;77;28408;-63
2021/09/19 03:21:52;;;;;;;10.08;3.20;;;;;;;13.61;92.09;145599.67;1819336;77;27969;-64
2021/09/19 03:24:27;;;;;;;7.75;2.80;;;;;;;13.76;91.83;145636.14;1853597;77;22123;-68
2021/09/19 03:27:03;;;;;;;6.40;3.20;;;;;;;13.84;91.58;145656.25;1834811;77;22125;-69
2021/09/19 03:29:38;;;;;;;6.85;2.95;;;;;;;13.86;91.30;145661.30;1834990;77;22579;-69
2021/09/19 03:32:13;;;;;;;4.95;2.90;;;;;;;13.85;91.19;145658.80;1835044;77;22129;-68
2021/09/19 03:35:16;;;;;;;7.15;2.87;;;;;;;13.86;91.12;145662.55;1853887;77;22207;-68
2021/09/19 03:37:51;;;;;;;5.08;3.00;;;;;;;13.87;91.22;145663.84;1819377;77;28030;-59
2021/09/19 03:40:26;;;;;;;4.25;2.42;;;;;;;13.97;91.06;145688.98;1835104;77;22133;-64
2021/09/19 03:43:21;;;;;;;5.12;2.52;;;;;;;14.01;90.90;145697.78;1819177;77;27973;-62
2021/09/19 03:45:56;;;;;;;3.72;2.47;;;;;;;14.04;90.71;145705.31;1835046;77;22124;-66
2021/09/19 03:48:34;;;;;;;4.15;2.65;;;;;;;14.08;90.61;145715.39;1853555;77;22124;-63
2021/09/19 03:51:27;;;;;;;9.00;2.60;;;;;;;14.17;89.70;145738.05;1812492;77;22172;-65
2021/09/19 03:54:03;;;;;;;5.10;2.95;;;;;;;14.13;89.06;145726.72;1835011;77;22563;-65
2021/09/19 03:57:03;;;;;;;6.90;2.95;;;;;;;14.03;88.80;145704.06;1834131;77;22226;-65
2021/09/19 03:59:38;;;;;;;4.28;2.60;;;;;;;13.96;88.92;145685.19;1835054;77;22132;-65
2021/09/19 04:02:32;;;;;;;4.35;2.90;;;;;;;13.95;88.92;145682.70;1853574;77;22135;-66
2021/09/19 04:05:27;;;;;;;4.87;2.77;;;;;;;13.92;88.78;145676.41;1853521;77;22171;-65
2021/09/19 04:08:21;;;;;;;4.00;2.30;;;;;;;13.88;88.71;145667.58;1853578;77;22554;-67
2021/09/19 04:11:21;;;;;;;6.20;2.40;;;;;;;13.73;88.72;145628.61;1853570;77;22220;-66
2021/09/19 04:13:56;;;;;;;5.12;2.90;;;;;;;13.62;89.02;145603.47;1834996;77;22215;-63
2021/09/19 04:16:33;;;;;;;5.30;2.85;;;;;;;13.59;89.04;145595.94;1835044;77;22128;-58
2021/09/19 04:19:14;;;;;;;3.85;2.52;;;;;;;13.60;89.01;145598.42;1834141;77;22180;-58
2021/09/19 04:21:50;;;;;;;5.25;3.00;;;;;;;13.65;88.93;145609.75;1853570;77;22159;-57
2021/09/19 04:24:46;;;;;;;4.72;2.60;;;;;;;13.70;88.72;145621.08;1819132;77;27972;-64
2021/09/19 04:27:41;;;;;;;4.67;2.85;;;;;;;13.81;88.58;145649.97;1853514;77;22124;-60
2021/09/19 04:30:16;;;;;;;6.37;3.20;;;;;;;13.79;88.41;145643.69;1819383;77;38732;-63
2021/09/19 04:32:57;;;;;;;5.17;2.72;;;;;;;13.73;88.26;145629.86;1834468;77;22193;-62
2021/09/19 04:35:51;;;;;;;4.30;2.62;;;;;;;13.57;88.56;145590.89;1853887;77;22132;-64
2021/09/19 04:38:27;;;;;;;6.75;3.10;;;;;;;13.45;88.83;145560.72;1835032;77;22148;-60
2021/09/19 04:41:03;;;;;;;6.17;3.60;;;;;;;13.33;89.85;145530.53;1834987;77;22144;-62
2021/09/19 04:43:38;;;;;;;5.55;2.80;;;;;;;13.17;90.69;145491.53;1835027;77;22136;-61
2021/09/19 04:46:13;;;;;;;10.48;3.00;;;;;;;13.04;91.56;145460.13;1843409;77;22132;-62
2021/09/19 04:48:50;;;;;;;6.22;3.20;;;;;;;12.95;92.43;145437.48;1834997;77;22177;-64
2021/09/19 04:51:45;;;;;;;4.90;2.83;;;;;;;12.90;93.28;145424.92;1834849;77;22167;-67
2021/09/19 04:54:21;;;;;;;7.75;3.40;;;;;;;12.89;93.51;145422.42;1853532;77;22196;-65
2021/09/19 04:56:58;;;;;;;6.65;3.10;;;;;;;12.89;93.97;145422.42;1834793;77;22151;-66
2021/09/19 04:59:51;;;;;;;5.90;3.33;;;;;;;12.88;94.08;145419.94;1853486;77;22136;-63
2021/09/19 05:02:28;;;;;;;8.53;3.65;;;;;;;12.86;94.67;145414.89;1835006;77;22571;-64
2021/09/19 05:05:07;;;;;;;5.85;3.17;;;;;;;12.85;94.94;145412.34;1853552;77;22150;-62
2021/09/19 05:08:01;;;;;;;7.60;4.25;;;;;;;12.86;95.57;145416.14;1853581;77;20186;-60
2021/09/19 05:10:36;;;;;;;7.50;4.33;;;;;;;12.84;96.11;145411.11;1853546;77;22163;-63
2021/09/19 05:13:11;;;;;;;9.98;3.95;;;;;;;12.82;96.32;145406.08;1843418;78;22558;-64
2021/09/19 05:15:52;;;;;;;6.45;3.87;;;;;;;12.80;96.62;145402.33;1853481;77;22161;-63
2021/09/19 05:18:27;;;;;;;6.50;3.27;;;;;;;12.78;96.52;145396.05;1834979;77;22132;-63
2021/09/19 05:21:07;;;;;;;7.40;3.65;;;;;;;12.79;96.52;145399.78;1853543;77;22609;-61
2021/09/19 05:24:09;;;;;;;8.78;4.47;;;;;;;12.80;96.84;145402.33;1834231;77;22181;-62
2021/09/19 05:27:04;;;;;;;8.45;3.90;;;;;;;12.90;96.76;145424.92;1834962;77;22136;-62
2021/09/19 05:29:58;;;;;;;7.40;4.35;;;;;;;13.08;96.90;145468.91;1853571;77;22135;-61
2021/09/19 05:32:39;;;;;;;10.90;4.67;;;;;;;13.06;96.21;145465.16;1833625;77;22138;-63
2021/09/19 05:35:20;;;;;;;8.63;4.75;;;;;;;12.97;96.43;145442.52;1814734;77;22170;-60
2021/09/19 05:37:55;;;;;;;8.50;4.58;;;;;;;12.96;96.67;145441.28;1817973;77;22148;-65
2021/09/19 05:40:29;;;;;;;7.65;4.92;;;;;;;12.99;95.83;145447.56;1830211;77;22171;-64
2021/09/19 05:43:10;;;;;;;7.70;4.35;;;;;;;13.07;96.04;145467.66;1834137;77;22144;-65
2021/09/19 05:45:45;;;;;;;6.83;4.50;;;;;;;13.09;95.72;145472.69;1835187;77;22136;-62
2021/09/19 05:48:39;;;;;;;8.15;4.62;;;;;;;13.13;95.25;145482.75;1813962;77;22586;-62
2021/09/19 05:51:21;;;;;;;8.45;4.53;;;;;;;13.11;94.43;145477.72;1834039;77;23212;-68
2021/09/19 05:54:15;;;;;;;7.12;3.92;;;;;;;13.04;94.38;145460.13;1835053;77;22587;-66
2021/09/19 05:56:50;;;;;;;6.17;4.05;;;;;;;13.03;94.62;145457.63;1835071;77;22140;-65
2021/09/19 05:59:27;;;;;;;6.25;3.58;;;;;;;13.07;94.43;145467.66;1853623;77;22623;-68
2021/09/19 06:02:26;;;;;;;7.50;4.67;;;;;;;13.14;94.07;145485.25;1826697;77;22615;-70
2021/09/19 06:05:01;;;;;;;10.10;4.67;;;;;;;13.15;93.88;145487.80;1818402;77;22141;-64
2021/09/19 06:07:55;;;;;;;9.93;4.78;;;;;;;13.16;93.13;145490.28;1819950;77;22566;-68
2021/09/19 06:10:37;;;;;;;7.92;4.22;;;;;;;13.27;93.03;145516.72;1827097;77;22191;-67
2021/09/19 06:13:30;;;;;;;8.15;4.40;;;;;;;13.31;93.05;145525.55;1827366;77;22151;-63
2021/09/19 06:16:05;;;;;;;10.50;6.17;;;;;;;13.46;92.88;145564.50;1827469;77;22135;-66
2021/09/19 06:19:01;;;;;;;12.55;6.55;;;;;;;13.54;91.04;145582.11;1834977;77;22128;-64
2021/09/19 06:21:38;;;;;;;10.15;6.33;;;;;;;13.64;90.80;145608.50;1834962;77;22179;-68
2021/09/19 06:24:32;;;;;;;9.13;5.33;;;;;;;13.71;88.89;145623.58;1853700;77;22116;-71
2021/09/19 06:27:12;;;;;;;9.05;3.95;;;;;;;13.84;88.74;145656.25;1834347;77;22164;-68
2021/09/19 06:30:09;;;;;;;7.97;3.83;;;;;;;13.75;87.92;145633.66;1800840;79;22169;-74
2021/09/19 06:33:03;;;;;;;7.05;3.05;;;;;;;13.76;88.42;145636.14;1826772;77;22605;-66
2021/09/19 06:35:57;;;;;;;8.53;2.77;;;;;;;13.56;88.42;145588.41;1834889;77;22136;-64
2021/09/19 06:38:38;;;;;;;5.00;2.47;;;;;;;13.37;89.11;145540.61;1834129;77;22193;-66
2021/09/19 06:41:14;;;;;;;3.70;2.02;;;;;;;13.30;89.38;145523.00;1819310;77;28053;-62
2021/09/19 06:43:51;;;;;;;5.35;2.35;;;;;;;13.39;88.88;145546.91;1830127;77;22213;-63
2021/09/19 06:46:29;;;;;;;3.98;2.00;;;;;;;13.64;88.83;145607.25;1818110;77;22152;-63
2021/09/19 06:49:04;;;;;;;3.60;1.77;;;;;;;14.00;88.17;145695.28;1821382;77;22191;-67
2021/09/19 06:51:39;;;;;;;3.20;1.60;;;;;;;14.26;86.40;145759.41;1818116;77;22606;-64
2021/09/19 06:54:21;;;;;;;3.27;1.80;;;;;;;14.13;86.14;145727.97;1816350;77;22183;-64
2021/09/19 06:56:56;;;;;;;3.42;1.72;;;;;;;13.97;86.15;145688.98;1826605;77;23441;-62
2021/09/19 06:59:32;;;;;;;4.45;1.55;;;;;;;13.79;86.72;145643.69;1807341;77;22226;-67
2021/09/19 07:02:07;;;;;;;3.15;1.70;;;;;;;13.76;87.49;145637.39;1819642;77;22163;-66
2021/09/19 07:05:05;;;;;;;6.25;2.45;;;;;;;13.73;87.86;145628.61;1815494;77;22408;-66
2021/09/19 07:07:40;;;;;;;4.08;1.82;;;;;;;13.78;88.50;145642.44;1819865;77;22540;-67
2021/09/19 07:10:16;;;;;;;4.35;2.15;;;;;;;13.82;87.98;145651.27;1815811;77;22247;-69
2021/09/19 07:12:57;;;;;;;4.45;2.42;;;;;;;13.89;88.26;145670.12;1819292;77;22195;-67
2021/09/19 07:15:39;;;;;;;5.17;2.25;;;;;;;13.98;87.45;145691.48;1830238;77;22599;-70
2021/09/19 07:18:33;;;;;;;6.00;2.80;;;;;;;14.07;87.64;145714.14;1811260;77;22188;-69
2021/09/19 07:21:14;;;;;;;6.80;2.20;;;;;;;13.97;87.61;145688.98;1834205;77;22164;-68
2021/09/19 07:23:55;;;;;;;6.25;2.00;;;;;;;13.94;88.01;145681.41;1834192;77;22152;-64
2021/09/19 07:26:36;;;;;;;6.10;2.55;;;;;;;13.92;87.79;145675.13;1834088;77;22586;-69
2021/09/19 07:29:11;;;;;;;4.90;2.47;;;;;;;13.90;88.49;145671.37;1853496;77;22140;-61
2021/09/19 07:31:53;;;;;;;4.08;2.20;;;;;;;13.92;88.55;145676.41;1834725;77;22287;-68
2021/09/19 07:34:44;;;;;;;6.10;2.10;;;;;;;13.92;88.91;145675.13;1819367;77;28013;-68
2021/09/19 07:37:20;;;;;;;5.05;2.33;;;;;;;13.96;88.88;145686.44;1834730;77;22183;-63
2021/09/19 07:39:56;;;;;;;4.70;2.58;;;;;;;14.01;88.68;145699.02;1834985;77;22144;-68
2021/09/19 07:42:37;;;;;;;4.50;2.83;;;;;;;13.95;88.72;145682.70;1808037;77;22634;-63
2021/09/19 07:45:13;;;;;;;7.60;3.17;;;;;;;13.87;89.91;145663.84;1814007;77;22163;-67
2021/09/19 07:48:15;;;;;;;4.70;2.80;;;;;;;13.90;89.98;145671.37;1834100;77;22172;-64
2021/09/19 07:51:29;;;;;;;5.90;3.30;;;;;;;13.96;89.89;145686.44;1834701;77;22227;-66
2021/09/19 07:54:18;;;;;;;5.22;2.90;;;;;;;13.93;90.13;145678.91;1834532;77;22208;-64
2021/09/19 07:56:54;;;;;;;5.47;3.02;;;;;;;13.93;90.59;145677.66;1834048;77;22172;-70
2021/09/19 07:59:50;;;;;;;6.00;3.30;;;;;;;13.94;90.38;145681.41;1834062;77;22156;-63
2021/09/19 08:02:31;;;;;;;8.93;3.50;;;;;;;13.92;90.50;145676.41;1833933;77;22610;-61
2021/09/19 08:05:09;;;;;;;7.17;4.37;;;;;;;13.90;90.72;145671.37;1834715;77;22163;-63
2021/09/19 08:07:51;;;;;;;6.55;3.67;;;;;;;13.94;90.88;145680.16;1834115;77;22151;-65
2021/09/19 08:10:32;;;;;;;8.50;3.37;;;;;;;13.93;90.69;145678.91;1834012;77;22177;-65
2021/09/19 08:13:09;;;;;;;5.65;3.60;;;;;;;13.90;91.04;145671.37;1834808;77;22180;-64
2021/09/19 08:15:51;;;;;;;6.28;3.80;;;;;;;13.90;91.13;145672.63;1853870;77;22205;-70
2021/09/19 08:18:26;;;;;;;5.78;3.40;;;;;;;13.90;91.54;145672.63;1819341;77;38719;-62
2021/09/19 08:21:26;;;;;;;7.85;4.15;;;;;;;14.06;91.57;145710.34;1853469;77;22196;-67
2021/09/19 08:24:01;;;;;;;7.15;4.15;;;;;;;14.16;91.48;145734.25;1853508;77;22546;-66
2021/09/19 08:26:43;;;;;;;6.25;3.58;;;;;;;14.16;91.63;145734.25;1853469;77;22208;-66
2021/09/19 08:29:42;;;;;;;8.13;4.17;;;;;;;14.08;92.10;145716.63;1834366;77;22140;-64
2021/09/19 08:32:17;;;;;;;6.40;3.90;;;;;;;14.05;92.58;145709.09;1848536;78;22156;-63
2021/09/19 08:34:52;;;;;;;8.48;4.75;;;;;;;14.10;92.95;145721.67;1835127;77;22558;-66
2021/09/19 08:37:31;;;;;;;9.80;4.67;;;;;;;14.22;92.91;145750.63;1853531;77;22208;-61
2021/09/19 08:40:14;;;;;;;8.23;4.85;;;;;;;14.27;93.15;145761.91;1853467;77;22219;-62
2021/09/19 08:42:54;;;;;;;8.13;5.20;;;;;;;14.26;93.53;145759.41;1853464;77;22218;-62
2021/09/19 08:45:52;;;;;;;7.97;5.20;;;;;;;14.24;93.78;145754.38;1853501;77;22124;-64
2021/09/19 08:48:46;;;;;;;8.15;6.05;;;;;;;14.25;94.36;145756.91;1834917;77;22168;-62
2021/09/19 08:51:43;;;;;;;9.43;6.35;;;;;;;14.34;94.38;145779.53;1853506;77;22143;-63
2021/09/19 08:54:39;;;;;;;9.98;6.33;;;;;;;14.48;94.70;145814.77;1834815;77;22132;-68
2021/09/19 08:57:21;;;;;;;9.15;6.12;;;;;;;14.76;94.10;145884.02;1853849;77;22199;-62
2021/09/19 09:00:16;;;;;;;9.13;6.15;;;;;;;15.05;91.94;145953.23;1834873;77;22165;-64
2021/09/19 09:03:14;;;;;;;9.03;5.83;;;;;;;15.07;91.15;145958.28;1819219;77;27988;-66
2021/09/19 09:05:59;;;;;;;8.30;5.78;;;;;;;15.13;91.52;145973.36;1835093;77;22128;-60
2021/09/19 09:08:53;;;;;;;9.65;6.97;;;;;;;15.19;91.25;145988.48;1834938;77;22591;-63
2021/09/19 09:11:29;;;;;;;8.28;6.45;;;;;;;15.20;90.07;145990.98;1853509;77;22140;-64
2021/09/19 09:14:05;;;;;;;10.38;6.40;;;;;;;15.05;90.49;145953.23;1853566;77;22606;-63
2021/09/19 09:16:49;;;;;;;8.48;6.55;;;;;;;15.01;91.80;145943.14;1834251;77;22572;-62
2021/09/19 09:19:54;;;;;;;9.65;6.70;;;;;;;15.25;91.51;146002.33;1853463;77;22212;-64
2021/09/19 09:22:33;;;;;;;9.68;6.60;;;;;;;15.52;91.05;146069.02;1843274;77;22124;-65
2021/09/19 09:25:32;;;;;;;11.05;6.28;;;;;;;15.68;90.37;146109.34;1834106;77;22174;-67
2021/09/19 09:28:08;;;;;;;7.25;5.65;;;;;;;15.74;90.24;146123.23;1853558;77;22164;-64
2021/09/19 09:30:43;;;;;;;9.05;5.85;;;;;;;15.79;89.70;146137.06;1834941;77;22594;-60
2021/09/19 09:33:45;;;;;;;17.15;7.05;;;;;;;15.79;89.55;146137.06;1834800;77;22151;-63
2021/09/19 09:37:01;;;;;;;11.75;6.65;;;;;;;15.78;89.97;146133.33;1834907;77;22124;-65
2021/09/19 09:39:42;;;;;;;9.55;7.10;;;;;;;15.93;89.63;146169.84;1834255;77;22163;-65
2021/09/19 09:42:21;;;;;;;8.60;6.30;;;;;;;16.12;88.55;146217.69;1819376;77;28464;-68
2021/09/19 09:45:24;;;;;;;8.10;6.45;;;;;;;16.36;86.63;146276.92;1833999;77;22607;-62
2021/09/19 09:48:31;;;;;;;9.65;6.75;;;;;;;16.52;86.86;146315.97;1834145;77;22213;-66
2021/09/19 09:51:22;;;;;;;8.28;6.40;;;;;;;16.39;85.69;146284.47;1834992;77;22145;-65
2021/09/19 09:54:04;;;;;;;9.35;6.20;;;;;;;16.19;86.36;146235.33;1813647;77;22190;-60
2021/09/19 09:56:58;;;;;;;8.75;5.95;;;;;;;16.10;86.62;146212.64;1835050;77;22156;-63
2021/09/19 09:59:54;;;;;;;10.68;6.20;;;;;;;15.95;87.44;146176.16;1834723;77;22155;-64
2021/09/19 10:02:31;;;;;;;7.60;5.75;;;;;;;15.89;88.33;146161.00;1834986;77;22133;-61
2021/09/19 10:05:08;;;;;;;6.22;4.25;;;;;;;15.95;87.31;146174.84;1853496;77;22160;-63
2021/09/19 10:07:44;;;;;;;5.95;4.05;;;;;;;16.06;86.55;146202.59;1835300;77;20457;-68
2021/09/19 10:10:21;;;;;;;4.83;3.62;;;;;;;16.50;84.71;146310.92;1853680;77;20103;-64
2021/09/19 10:12:58;;;;;;;6.85;3.55;;;;;;;16.58;84.41;146331.06;1853524;77;22171;-63
2021/09/19 10:15:54;;;;;;;4.65;3.17;;;;;;;17.23;82.86;146489.95;1834951;77;22183;-63
2021/09/19 10:18:49;;;;;;;7.40;4.12;;;;;;;17.73;80.04;146614.80;1835027;77;22129;-67
2021/09/19 10:21:25;;;;;;;7.00;3.70;;;;;;;17.88;79.21;146651.37;1834874;77;22153;-66
2021/09/19 10:24:02;;;;;;;7.28;3.10;;;;;;;18.16;75.77;146719.50;1835055;77;20095;-71
2021/09/19 10:26:55;;;;;;;5.25;2.83;;;;;;;18.21;75.90;146732.11;1820576;77;22208;-71
2021/09/19 10:29:33;;;;;;;6.05;2.90;;;;;;;18.27;73.73;146745.98;1835102;77;22132;-69
2021/09/19 10:32:43;;;;;;;4.08;2.30;;;;;;;18.42;72.86;146783.87;1835023;77;22148;-66
2021/09/19 10:35:26;;;;;;;5.62;2.50;;;;;;;18.58;72.24;146822.98;1835092;77;22132;-67
2021/09/19 10:38:05;;;;;;;4.17;2.22;;;;;;;18.71;72.12;146855.78;1835024;77;22132;-65
2021/09/19 10:40:41;;;;;;;6.35;2.25;;;;;;;18.63;72.49;146835.61;1853588;77;22249;-65
2021/09/19 10:43:22;;;;;;;7.30;2.47;;;;;;;18.44;72.78;146790.19;1834860;77;22159;-60
2021/09/19 10:45:58;;;;;;;4.72;2.37;;;;;;;18.35;72.94;146767.47;1834857;77;22161;-66
2021/09/19 10:48:57;;;;;;;3.75;2.12;;;;;;;18.23;73.26;146738.42;1835003;77;22623;-63
2021/09/19 10:52:07;;;;;;;2.85;1.70;;;;;;;17.81;74.22;146633.75;1834756;77;22213;-62
2021/09/19 10:54:52;;;;;;;4.58;1.37;;;;;;;17.82;74.14;146635.00;1835020;77;22211;-60
2021/09/19 10:58:03;;;;;;;2.77;1.47;;;;;;;17.62;74.39;146587.02;1834884;77;22619;-62
2021/09/19 11:00:43;;;;;;;2.50;1.35;;;;;;;17.42;75.03;146537.83;1853505;77;22585;-62
2021/09/19 11:03:37;;;;;;;3.02;1.20;;;;;;;17.18;75.41;146478.59;1834908;77;22152;-62
2021/09/19 11:06:31;;;;;;;2.02;1.20;;;;;;;17.11;75.71;146460.94;1835009;77;22124;-63
2021/09/19 11:09:25;;;;;;;1.60;1.10;;;;;;;16.93;76.35;146416.83;1834812;77;22588;-62
2021/09/19 11:15:02;;;;;;;2.17;0.95;;;;;;;16.73;77.23;146366.37;1853564;77;22151;-61
2021/09/19 11:17:57;;;;;;;3.33;0.95;;;;;;;16.56;77.42;146326.02;1834749;77;22191;-62
2021/09/19 11:21:17;;;;;;;1.55;0.95;;;;;;;16.47;77.70;146303.38;1853574;77;22127;-63
2021/09/19 11:24:06;;;;;;;2.02;0.95;;;;;;;16.58;77.99;146329.81;1834847;77;22174;-62
2021/09/19 11:26:47;;;;;;;1.60;0.85;;;;;;;16.69;77.74;146357.56;1834991;77;22148;-62
2021/09/19 11:29:25;;;;;;;2.75;0.95;;;;;;;16.71;77.45;146363.88;1835034;77;22130;-63
2021/09/19 11:32:19;;;;;;;2.15;1.07;;;;;;;16.71;77.53;146362.58;1834917;77;22639;-64
2021/09/19 11:34:54;;;;;;;3.10;1.30;;;;;;;16.67;77.28;146353.77;1835035;77;22124;-62
2021/09/19 11:37:31;;;;;;;2.67;1.05;;;;;;;16.56;77.90;146326.02;1834864;77;22167;-62
2021/09/19 11:40:32;;;;;;;1.40;0.80;;;;;;;16.46;78.09;146300.81;1842946;77;22251;-70
2021/09/19 11:43:28;;;;;;;2.05;0.85;;;;;;;16.09;78.80;146210.14;1853591;77;22606;-66
2021/09/19 11:46:10;;;;;;;2.55;1.02;;;;;;;16.13;78.64;146218.94;1819397;77;28366;-64
2021/09/19 11:48:47;;;;;;;1.27;0.75;;;;;;;16.08;79.22;146206.34;1834776;77;22173;-65
2021/09/19 11:51:24;;;;;;;2.55;1.10;;;;;;;16.00;79.72;146187.45;1819568;77;27971;-60
2021/09/19 11:54:00;;;;;;;2.00;1.10;;;;;;;15.99;80.51;146184.94;1835199;77;22155;-69
2021/09/19 11:56:56;;;;;;;3.42;0.90;;;;;;;15.93;80.71;146169.84;1835266;77;22172;-59
2021/09/19 12:00:12;;;;;;;3.27;1.50;;;;;;;15.85;81.28;146150.97;1834868;77;22209;-62
2021/09/19 12:02:52;;;;;;;3.10;1.00;;;;;;;15.83;82.13;146147.16;1834829;77;22156;-65
2021/09/19 12:05:26;;;;;;;2.27;1.20;;;;;;;15.88;82.17;146157.25;1835330;77;22136;-59
2021/09/19 12:08:01;;;;;;;2.27;1.10;;;;;;;16.09;81.59;146210.14;1835030;77;22174;-63
2021/09/19 12:10:56;;;;;;;2.27;1.07;;;;;;;16.16;81.74;146227.78;1835003;77;22136;-63
2021/09/19 12:13:35;;;;;;;1.95;0.90;;;;;;;16.25;81.75;146249.17;1853581;77;22127;-72
2021/09/19 12:16:18;;;;;;;1.95;1.10;;;;;;;16.27;80.94;146254.22;1853581;77;22167;-72
2021/09/19 12:18:53;;;;;;;3.37;1.70;;;;;;;16.24;80.18;146247.94;1853504;77;22210;-66
2021/09/19 12:21:28;;;;;;;4.08;1.72;;;;;;;16.20;80.33;146237.83;1834956;77;22160;-64
2021/09/19 12:24:04;;;;;;;3.17;1.32;;;;;;;16.15;80.29;146225.23;1835001;77;22565;-68
2021/09/19 12:27:20;;;;;;;2.00;1.05;;;;;;;16.08;80.36;146207.64;1816180;79;22179;-59
2021/09/19 12:30:16;;;;;;;1.22;0.80;;;;;;;15.93;80.18;146171.09;1834997;77;22159;-66
2021/09/19 12:32:55;;;;;;;2.02;1.00;;;;;;;15.86;79.41;146152.22;1835049;77;22164;-65
2021/09/19 12:35:35;;;;;;;2.35;1.00;;;;;;;15.74;79.39;146124.47;1853560;77;22181;-65
2021/09/19 12:38:13;;;;;;;1.98;1.02;;;;;;;15.59;79.71;146086.66;1823474;77;22180;-68
2021/09/19 12:41:02;;;;;;;3.62;0.98;;;;;;;15.47;80.23;146056.44;1816172;77;22180;-59
2021/09/19 12:43:57;;;;;;;2.60;1.40;;;;;;;15.29;80.38;146013.67;1827412;77;22338;-68
2021/09/19 12:46:55;;;;;;;2.45;1.30;;;;;;;15.18;81.12;145985.94;1843354;77;22613;-72
2021/09/19 12:49:49;;;;;;;2.77;1.30;;;;;;;15.13;81.65;145974.61;1835038;77;22562;-66